Have a Safe July 4th! 

Flight Track Log - Related Links

Times and Time Zones

All times are in EDT time to prevent confusion due to time zone crossing. See the UAL252 flight status page for this flight to view local times or setup timezone preferences in your user account.

Time Position Orientation Groundspeed Altitude Reporting Facility
EDT Latitude Longitude Course Direction KTS MPH feet Rate Location/Type
Tue 06:07:35 PM 32.7436 -117.2347 277° West 161 185 1,700  Level Los Angeles Center
Tue 06:08:37 PM 32.7508 -117.3044 277° West 208 239 4,100 2,758 Climbing Los Angeles Center
Tue 06:09:39 PM 32.6872 -117.2961 174° South 251 289 7,400 2,855 Climbing Los Angeles Center
Tue 06:10:41 PM 32.6494 -117.2233 122° Southeast 282 325 10,000 1,984 Climbing Los Angeles Center
Tue 06:11:43 PM 32.6314 -117.1208 102° East 316 364 11,500 1,935 Climbing Los Angeles Center
Tue 06:12:45 PM 32.6119 -117.0039 101° East 351 404 14,000 2,565 Climbing Los Angeles Center
Tue 06:13:47 PM 32.6217 -116.8631 85° East 362 417 16,800 2,226 Climbing Los Angeles Center
Tue 06:14:49 PM 32.6333 -116.7350 84° East 384 442 18,600 1,790 Climbing Los Angeles Center
Tue 06:15:51 PM 32.6472 -116.6039 83° East 401 461 20,500 1,742 Climbing Los Angeles Center
Tue 06:16:53 PM 32.6600 -116.4703 83° East 410 472 22,200 1,839 Climbing Los Angeles Center
Tue 06:17:55 PM 32.6756 -116.3083 83° East 420 483 24,300 1,742 Climbing Los Angeles Center
Tue 06:18:57 PM 32.6881 -116.1706 84° East 425 489 25,800 1,452 Climbing Los Angeles Center
Tue 06:19:59 PM 32.7014 -116.0300 84° East 432 497 27,300 1,355 Climbing Los Angeles Center
Tue 06:21:01 PM 32.7153 -115.8856 83° East 441 507 28,600 1,268 Climbing Los Angeles Center
Tue 06:22:02 PM 32.7292 -115.7392 84° East 448 516 29,900 1,317 Climbing Los Angeles Center
Tue 06:23:04 PM 32.7442 -115.5592 84° East 457 526 31,300 1,306 Climbing Los Angeles Center
Tue 06:24:06 PM 32.7533 -115.4075 86° East 462 532 32,600 1,210 Climbing Los Angeles Center
Tue 06:25:08 PM 32.7556 -115.2539 89° East 466 536 33,800 1,306 Climbing Los Angeles Center
Tue 06:26:10 PM 32.7611 -115.1006 87° East 465 535 35,300 1,355 Climbing Los Angeles Center
Tue 06:27:12 PM 32.7647 -114.9511 88° East 457 526 36,600 823 Climbing Los Angeles Center
Tue 06:28:14 PM 32.7692 -114.8022 88° East 453 521 37,000 194 Climbing Los Angeles Center
Tue 06:29:16 PM 32.7714 -114.6233 89° East 452 520 37,000 -48 Level Los Angeles Center
Tue 06:30:18 PM 32.7725 -114.4733 89° East 453 521 36,900 -48 Descending Los Angeles Center
Tue 06:31:20 PM 32.7747 -114.3244 89° East 451 519 36,900  Level Los Angeles Center
Tue 06:32:22 PM 32.7772 -114.1764 89° East 450 518 36,900 48 Level Los Angeles Center
Tue 06:33:24 PM 32.7767 -114.0253 90° East 455 524 37,000 48 Climbing Los Angeles Center
Tue 06:34:26 PM 32.7903 -113.8781 84° East 450 518 37,000  Level Los Angeles Center
Tue 06:35:58 PM 32.8231 -113.6517 80° East 457 526 37,000  Level Albuquerque Center
Tue 06:36:30 PM 32.8375 -113.5531 80° East 452 520 37,000  Level Los Angeles Center
Tue 06:37:00 PM 32.8444 -113.5044 80° East 454 522 37,000  Level Albuquerque Center
Tue 06:38:02 PM 32.8689 -113.3269 81° East 453 521 37,000  Level Albuquerque Center
Tue 06:39:03 PM 32.8900 -113.1797 80° East 451 519 37,000  Level Albuquerque Center
Tue 06:40:05 PM 32.9094 -113.0306 81° East 453 521 37,000  Level Albuquerque Center
Tue 06:41:07 PM 32.9294 -112.8828 81° East 451 519 37,000  Level Albuquerque Center
Tue 06:42:08 PM 32.9486 -112.7347 81° East 451 519 37,000  Level Albuquerque Center
Tue 06:43:10 PM 32.9361 -112.5869 96° East 449 517 37,000  Level Albuquerque Center
Tue 06:44:11 PM 32.9125 -112.4400 101° East 450 518 37,000  Level Albuquerque Center
Tue 06:45:13 PM 32.8897 -112.2925 100° East 452 520 37,000  Level Albuquerque Center
Tue 06:46:15 PM 32.8661 -112.1333 100° East 450 518 37,000  Level Albuquerque Center
Tue 06:47:16 PM 32.8442 -111.9892 100° East 447 514 37,000  Level Albuquerque Center
Tue 06:48:18 PM 32.8214 -111.8425 100° East 453 521 37,000  Level Albuquerque Center
Tue 06:49:20 PM 32.7989 -111.6986 101° East 448 516 37,000  Level Albuquerque Center
Tue 06:50:21 PM 32.7714 -111.5272 101° East 443 510 37,000  Level Albuquerque Center
Tue 06:51:23 PM 32.7481 -111.3828 101° East 445 512 37,000  Level Albuquerque Center
Tue 06:52:24 PM 32.7258 -111.2403 100° East 442 509 37,000  Level Albuquerque Center
Tue 06:53:26 PM 32.7019 -111.0953 101° East 447 514 37,000  Level Albuquerque Center
Tue 06:54:27 PM 32.6778 -110.9517 101° East 446 513 37,000  Level Albuquerque Center
Tue 06:55:29 PM 32.6553 -110.8067 100° East 448 516 37,000  Level Albuquerque Center
Tue 06:56:30 PM 32.6300 -110.6644 102° East 445 512 37,000  Level Albuquerque Center
Tue 06:57:32 PM 32.6022 -110.4919 101° East 445 512 37,000  Level Albuquerque Center
Tue 06:58:33 PM 32.5767 -110.3469 102° East 449 517 37,000  Level Albuquerque Center
Tue 06:59:35 PM 32.5511 -110.1931 101° East 449 517 37,000  Level Albuquerque Center
Tue 07:00:36 PM 32.5247 -110.0494 102° East 450 518 37,000  Level Albuquerque Center
Tue 07:01:38 PM 32.5008 -109.9058 101° East 450 518 37,000  Level Albuquerque Center
Tue 07:02:39 PM 32.4756 -109.7639 102° East 447 514 37,000  Level Albuquerque Center
Tue 07:03:41 PM 32.4486 -109.6186 102° East 453 521 37,000  Level Albuquerque Center
Tue 07:04:42 PM 32.4244 -109.4758 101° East 451 519 37,000  Level Albuquerque Center
Tue 07:05:44 PM 32.3942 -109.3053 102° East 448 516 37,000  Level Albuquerque Center
Tue 07:06:45 PM 32.3686 -109.1631 102° East 447 514 37,000  Level Albuquerque Center
Tue 07:07:47 PM 32.3431 -109.0206 102° East 448 516 37,000  Level Albuquerque Center
Tue 07:08:48 PM 32.3172 -108.8786 102° East 448 516 37,000  Level Albuquerque Center
Tue 07:09:50 PM 32.2908 -108.7361 102° East 449 517 37,000  Level Albuquerque Center
Tue 07:10:51 PM 32.2647 -108.5928 102° East 451 519 37,000  Level Albuquerque Center
Tue 07:11:52 PM 32.2353 -108.4350 102° East 448 516 37,000  Level Albuquerque Center
Tue 07:12:54 PM 32.2089 -108.2894 102° East 453 521 37,000  Level Albuquerque Center
Tue 07:13:55 PM 32.1811 -108.1447 103° East 454 522 37,000  Level Albuquerque Center
Tue 07:14:57 PM 32.1544 -108.0006 102° East 453 521 37,000  Level Albuquerque Center
Tue 07:15:58 PM 32.1342 -107.8258 98° East 452 520 37,000 -49 Level Albuquerque Center
Tue 07:17:00 PM 32.1178 -107.6819 98° East 448 516 36,900 -49 Descending Albuquerque Center
Tue 07:18:01 PM 32.1017 -107.5383 98° East 446 513 36,900  Level Albuquerque Center
Tue 07:19:03 PM 32.0867 -107.3953 97° East 445 512 36,900  Level Albuquerque Center
Tue 07:20:04 PM 32.0703 -107.2522 98° East 445 512 36,900 49 Level Albuquerque Center
Tue 07:21:06 PM 32.0536 -107.1097 98° East 444 511 37,000 49 Climbing Albuquerque Center
Tue 07:22:07 PM 32.0342 -106.9369 98° East 446 513 37,000  Level Albuquerque Center
Tue 07:23:09 PM 32.0169 -106.7944 98° East 443 510 37,000  Level Albuquerque Center
Tue 07:24:10 PM 31.9994 -106.6517 98° East 443 510 37,000 -49 Level Albuquerque Center
Tue 07:25:12 PM 31.9822 -106.5097 98° East 441 507 36,900 -49 Descending Albuquerque Center
Tue 07:26:13 PM 31.9658 -106.3675 98° East 440 506 36,900 49 Level Albuquerque Center
Tue 07:27:15 PM 31.9547 -106.2225 95° East 446 513 37,000 49 Climbing Albuquerque Center
Tue 07:28:16 PM 31.9578 -106.0567 89° East 438 504 37,000  Level Albuquerque Center
Tue 07:29:17 PM 31.9619 -105.9181 88° East 439 505 37,000 -49 Level Albuquerque Center
Tue 07:30:19 PM 31.9650 -105.7761 89° East 435 501 36,900 -49 Descending Albuquerque Center
Tue 07:31:20 PM 31.9686 -105.6331 88° East 437 503 36,900 49 Level Albuquerque Center
Tue 07:32:22 PM 31.9731 -105.4892 88° East 439 505 37,000 49 Climbing Albuquerque Center
Tue 07:33:23 PM 31.9761 -105.3453 89° East 439 505 37,000  Level Albuquerque Center
Tue 07:34:25 PM 31.9803 -105.2025 88° East 436 502 37,000  Level Albuquerque Center
Tue 07:35:26 PM 31.9836 -105.0297 89° East 439 505 37,000 -49 Level Albuquerque Center
Tue 07:36:28 PM 31.9872 -104.8850 88° East 440 506 36,900  Descending Albuquerque Center
Tue 07:37:29 PM 31.9900 -104.7403 89° East 441 507 37,000 49 Climbing Albuquerque Center
Tue 07:38:30 PM 31.9925 -104.5942 89° East 445 512 37,000  Level Albuquerque Center
Tue 07:39:32 PM 31.9947 -104.4494 89° East 443 510 37,000  Level Albuquerque Center
Tue 07:40:33 PM 31.9972 -104.3050 89° East 442 509 37,000  Level Albuquerque Center
Tue 07:41:35 PM 31.9986 -104.1611 89° East 440 506 37,000  Level Albuquerque Center
Tue 07:42:36 PM 32.0011 -104.0117 89° East 441 507 37,000  Level Albuquerque Center
Tue 07:43:38 PM 32.0031 -103.8669 89° East 441 507 37,000  Level Albuquerque Center
Tue 07:44:39 PM 32.0042 -103.7239 89° East 440 506 37,000  Level Albuquerque Center
Tue 07:45:41 PM 32.0050 -103.5806 90° East 439 505 37,000  Level Albuquerque Center
Tue 07:46:42 PM 32.0072 -103.4097 89° East 437 503 37,000  Level Albuquerque Center
Tue 07:47:44 PM 32.0086 -103.2675 89° East 437 503 37,000  Level Albuquerque Center
Tue 07:48:45 PM 32.0083 -103.1231 90° East 440 506 37,000  Level Albuquerque Center
Tue 07:49:47 PM 32.0092 -102.9903 90° East 440 506 37,000  Level Albuquerque Center
Tue 07:50:48 PM 32.0097 -102.8192 90° East 437 503 37,000 -49 Level Albuquerque Center
Tue 07:51:50 PM 32.0103 -102.6761 90° East 436 502 36,900 -49 Descending Albuquerque Center
Tue 07:52:51 PM 32.0094 -102.5322 90° East 437 503 36,900 49 Level Albuquerque Center
Tue 07:53:53 PM 32.0097 -102.3817 90° East 442 509 37,000 43 Climbing Albuquerque Center
Tue 07:55:09 PM 32.0050 -102.2075 92° East 442 509 37,000  Level Fort Worth Center
Tue 07:56:10 PM 31.9706 -102.0661 106° East 442 509 37,000  Level Fort Worth Center
Tue 07:57:09 PM 31.9233 -101.9292 112° Southeast 442 509 37,000 -50 Level Fort Worth Center
Tue 07:58:09 PM 31.8781 -101.7972 112° Southeast 442 509 36,900 149 Descending Fort Worth Center
Tue 07:59:10 PM 31.8325 -101.6606 111° Southeast 442 509 37,300 700 Climbing Fort Worth Center
Tue 08:00:09 PM 31.7808 -101.5214 114° Southeast 442 509 38,300 857 Climbing Fort Worth Center
Tue 08:01:09 PM 31.7392 -101.3875 110° East 442 509 39,000 350 Climbing Fort Worth Center
Tue 08:02:09 PM 31.6914 -101.2489 112° Southeast 447 514 39,000  Level Fort Worth Center
Tue 08:03:09 PM 31.6411 -101.1125 113° Southeast 447 514 39,000 -50 Level Fort Worth Center
Tue 08:04:09 PM 31.5947 -100.9789 112° Southeast 447 514 38,900 -50 Descending Fort Worth Center
Tue 08:05:09 PM 31.5464 -100.8431 113° Southeast 447 514 38,900 50 Level Fort Worth Center
Tue 08:06:09 PM 31.5000 -100.7072 112° Southeast 447 514 39,000  Climbing Fort Worth Center
Tue 08:07:09 PM 31.4450 -100.5667 115° Southeast 441 507 38,900  Descending Fort Worth Center
Tue 08:08:10 PM 31.3983 -100.4336 112° Southeast 441 507 39,000 51 Climbing Fort Worth Center
Tue 08:09:06 PM 31.3525 -100.3056 113° Southeast 448 516 39,000  Level Houston Center
Tue 08:10:08 PM 31.3039 -100.1700 113° Southeast 450 518 39,000  Level Houston Center
Tue 08:11:09 PM 31.2544 -100.0336 113° Southeast 453 521 39,000  Level Houston Center
Tue 08:12:11 PM 31.2067 -99.8983 112° Southeast 452 520 39,000  Level Houston Center
Tue 08:13:13 PM 31.1581 -99.7647 113° Southeast 448 516 39,000 -48 Level Houston Center
Tue 08:14:15 PM 31.1092 -99.6306 113° Southeast 448 516 38,900  Descending Houston Center
Tue 08:15:17 PM 31.0797 -99.4903 104° East 446 513 39,000 48 Climbing Houston Center
Tue 08:16:19 PM 31.0678 -99.3183 95° East 442 509 39,000  Level Houston Center
Tue 08:17:21 PM 31.0586 -99.1739 94° East 446 513 39,000  Level Houston Center
Tue 08:18:22 PM 31.0483 -99.0250 95° East 446 513 39,000  Level Houston Center
Tue 08:19:24 PM 31.0372 -98.8800 95° East 445 512 39,000 -290 Level Houston Center
Tue 08:20:26 PM 31.0269 -98.7347 95° East 445 512 38,400 -823 Descending Houston Center
Tue 08:21:28 PM 31.0175 -98.5894 94° East 447 514 37,300 -1,016 Descending Houston Center
Tue 08:22:30 PM 31.0053 -98.4417 95° East 453 521 36,300 -968 Descending Houston Center
Tue 08:23:32 PM 30.9956 -98.2967 94° East 446 513 35,300 -629 Descending Houston Center
Tue 08:24:34 PM 30.9842 -98.1542 95° East 439 505 35,000 -145 Descending Houston Center
Tue 08:25:36 PM 30.9711 -97.9883 95° East 437 503 35,000  Level Houston Center
Tue 08:26:38 PM 30.9600 -97.8475 95° East 435 501 35,000  Level Houston Center
Tue 08:27:40 PM 30.9492 -97.7050 95° East 436 502 35,000  Level Houston Center
Tue 08:28:41 PM 30.9381 -97.5656 95° East 433 498 35,000  Level Houston Center
Tue 08:29:43 PM 30.9264 -97.4250 95° East 434 499 35,000 -48 Level Houston Center
Tue 08:30:45 PM 30.9125 -97.2769 96° East 438 504 34,900 -484 Descending Houston Center
Tue 08:31:47 PM 30.9025 -97.1189 94° East 444 511 34,000 -1,548 Descending Houston Center
Tue 08:32:49 PM 30.8911 -96.9764 95° East 449 517 31,700 -2,177 Descending Houston Center
Tue 08:33:51 PM 30.8778 -96.8319 96° East 446 513 29,500 -2,081 Descending Houston Center
Tue 08:34:53 PM 30.8658 -96.6944 96° East 428 493 27,400 -2,129 Descending Houston Center
Tue 08:35:55 PM 30.8522 -96.5581 97° East 421 484 25,100 -2,468 Descending Houston Center
Tue 08:36:57 PM 30.7903 -96.4389 121° Southeast 430 495 22,300 -2,468 Descending Houston Center
Tue 08:37:59 PM 30.7147 -96.3086 124° Southeast 411 473 20,000 -1,984 Descending Houston Center
Tue 08:39:01 PM 30.6536 -96.2022 124° Southeast 395 455 18,200 -1,756 Descending Houston Center
Tue 08:40:02 PM 30.5947 -96.1011 124° Southeast 377 434 16,400 -1,659 Descending Houston Center
Tue 08:41:04 PM 30.5422 -96.0133 125° Southeast 361 415 14,800 -1,597 Descending Houston Center
Tue 08:42:06 PM 30.4878 -95.9211 124° Southeast 349 402 13,100 -1,355 Descending Houston Center
Tue 08:43:08 PM 30.4311 -95.8364 128° Southeast 335 386 12,000 -774 Descending Houston Center
Tue 08:44:10 PM 30.3522 -95.7567 139° Southeast 312 359 11,500 -1,031 Descending Houston Center
Tue 08:45:16 PM 30.2800 -95.6822 138° Southeast 300 345 9,800 -1,463 Descending Houston Center
Tue 08:46:13 PM 30.2286 -95.6275 137° Southeast 297 342 8,500 -1,361 Descending Houston Center
Tue 08:47:15 PM 30.1697 -95.5656 138° Southeast 289 333 7,100 -726 Descending Houston Center
Tue 08:48:17 PM 30.1117 -95.5039 137° Southeast 284 327 7,000 -48 Descending Houston Center
Tue 08:49:19 PM 30.1064 -95.4103 94° East 297 342 7,000 -390 Level Houston Center
Tue 08:50:20 PM 30.1064 -95.3183 90° East 288 331 6,200 -1,122 Descending Houston Center
Tue 08:51:22 PM 30.1064 -95.2239 90° East 244 281 4,700 -1,355 Descending Houston Center
Tue 08:52:24 PM 30.0806 -95.1528 113° Southeast 222 255 3,400 -919 Descending Houston Center
Tue 08:53:26 PM 30.0350 -95.1803 208° Southwest 176 203 2,800 -885 Descending Houston Center
Tue 08:54:26 PM 30.0000 -95.2111 217° Southwest 176 203 1,600 -1,200 Descending Houston Center

Login

Don't have an account? Register now (free) for customized features, flight alerts, and more!